Time;durP1;ratioP1;P1;durP2;ratioP2;P2;SDS_P1;SDS_P2;PMS_P1;PMS_P2;Temp;Humidity;BMP_temperature;BMP_pressure;BME280_temperature;BME280_humidity;BME280_pressure;Samples;Min_cycle;Max_cycle;Signal;HPM_P1;HPM_P2
2023/08/09 00:00:50;;;;;;;20.48;3.38;;;;;;;14.36;100.00;99056.59;5091150;28;20119;-75
2023/08/09 00:03:15;;;;;;;23.02;3.30;;;;;;;14.27;100.00;99054.41;5107811;28;20040;-74
2023/08/09 00:05:41;;;;;;;21.23;3.38;;;;;;;14.24;100.00;99060.34;5092554;28;20419;-75
2023/08/09 00:08:06;;;;;;;20.65;2.67;;;;;;;14.26;100.00;99073.59;5091013;28;20054;-75
2023/08/09 00:10:33;;;;;;;10.60;1.63;;;;;;;14.22;100.00;99067.09;5108481;28;20525;-74
2023/08/09 00:12:59;;;;;;;18.05;2.25;;;;;;;14.15;100.00;99071.94;5090923;28;20120;-74
2023/08/09 00:15:24;;;;;;;14.13;1.90;;;;;;;14.19;100.00;99068.44;5091495;28;20032;-74
2023/08/09 00:17:49;;;;;;;9.05;1.58;;;;;;;14.12;100.00;99067.88;5107853;28;20068;-74
2023/08/09 00:20:15;;;;;;;16.55;2.08;;;;;;;14.21;100.00;99068.19;5092269;28;20035;-74
2023/08/09 00:22:41;;;;;;;19.45;2.20;;;;;;;14.21;100.00;99079.81;5090652;28;20036;-74
2023/08/09 00:25:09;;;;;;;12.48;1.77;;;;;;;14.16;100.00;99071.69;5093030;28;20046;-74
2023/08/09 00:27:34;;;;;;;15.05;1.83;;;;;;;14.16;100.00;99068.97;5091306;28;20478;-74
2023/08/09 00:30:00;;;;;;;21.75;2.95;;;;;;;14.00;100.00;99035.63;5107197;28;20100;-74
2023/08/09 00:32:25;;;;;;;23.38;2.90;;;;;;;14.33;100.00;99064.16;5090348;28;20181;-74
2023/08/09 00:34:51;;;;;;;23.17;3.80;;;;;;;14.35;100.00;99074.72;5090341;28;20028;-74
2023/08/09 00:37:16;;;;;;;13.70;1.75;;;;;;;14.08;100.00;99067.59;5091244;28;20043;-74
2023/08/09 00:39:42;;;;;;;16.38;1.80;;;;;;;14.18;100.00;99077.66;5107949;28;20032;-74
2023/08/09 00:42:07;;;;;;;11.88;1.75;;;;;;;14.32;100.00;99067.13;5073392;28;20034;-74
2023/08/09 00:44:32;;;;;;;8.65;1.40;;;;;;;14.21;100.00;99074.41;5107580;28;20016;-73
2023/08/09 00:46:58;;;;;;;12.07;1.58;;;;;;;14.25;100.00;99070.09;5090169;28;20111;-74
2023/08/09 00:49:25;;;;;;;12.35;2.10;;;;;;;14.16;100.00;99073.56;5073282;28;20422;-74
2023/08/09 00:51:50;;;;;;;20.00;2.05;;;;;;;14.24;100.00;99075.78;5090455;28;20060;-74
2023/08/09 00:54:17;;;;;;;14.82;1.95;;;;;;;13.79;100.00;99015.81;5090627;28;20035;-74
2023/08/09 00:56:44;;;;;;;22.92;2.70;;;;;;;14.31;100.00;99090.69;5090409;28;20032;-74
2023/08/09 00:59:09;;;;;;;17.67;2.30;;;;;;;14.30;100.00;99066.56;5107445;28;20533;-74
2023/08/09 01:01:35;;;;;;;14.35;2.67;;;;;;;14.34;100.00;99084.75;5108155;28;20063;-74
2023/08/09 01:04:01;;;;;;;21.67;2.63;;;;;;;14.29;100.00;99084.69;5092438;28;20028;-74
2023/08/09 01:07:04;;;;;;;23.30;2.72;;;;;;;14.44;100.00;99086.66;5091764;28;20039;-74
2023/08/09 01:09:35;;;;;;;19.40;2.53;;;;;;;14.42;100.00;99082.59;5092012;28;20055;-74
2023/08/09 01:12:14;;;;;;;24.45;3.05;;;;;;;14.47;100.00;99077.16;5091407;28;20032;-74
2023/08/09 01:14:45;;;;;;;21.10;2.50;;;;;;;14.49;100.00;99086.66;5090417;28;20426;-74
2023/08/09 01:17:15;;;;;;;21.88;2.85;;;;;;;14.55;100.00;99085.63;5092030;28;20020;-74
2023/08/09 01:19:45;;;;;;;17.50;2.42;;;;;;;14.55;100.00;99091.03;5091472;28;20032;-74
2023/08/09 01:22:15;;;;;;;21.13;2.60;;;;;;;14.49;100.00;99094.78;5092557;28;20094;-74
2023/08/09 01:24:41;;;;;;;17.27;2.75;;;;;;;14.41;100.00;99091.78;5090620;28;20070;-74
2023/08/09 01:27:06;;;;;;;14.15;2.33;;;;;;;14.41;100.00;99098.00;5090693;28;20502;-74
2023/08/09 01:29:32;;;;;;;17.02;2.20;;;;;;;14.44;100.00;99089.38;5092212;28;20032;-74
2023/08/09 01:31:57;;;;;;;17.40;2.05;;;;;;;14.38;100.00;99092.31;5091669;28;20043;-74
2023/08/09 01:34:23;;;;;;;16.60;2.58;;;;;;;14.33;100.00;99090.41;5090464;28;20474;-74
2023/08/09 01:36:50;;;;;;;17.58;2.83;;;;;;;14.48;100.00;99100.47;5095146;28;20028;-75
2023/08/09 01:39:21;;;;;;;23.23;3.30;;;;;;;14.52;100.00;99101.59;5093844;28;20038;-74
2023/08/09 01:41:48;;;;;;;27.58;3.38;;;;;;;14.55;100.00;99101.88;5093832;28;20028;-74
2023/08/09 01:44:14;;;;;;;26.63;3.78;;;;;;;14.53;100.00;99100.50;5094968;28;20103;-74
2023/08/09 01:46:40;;;;;;;25.55;3.72;;;;;;;14.59;100.00;99102.16;5094349;28;20032;-74
2023/08/09 01:49:15;;;;;;;25.20;3.40;;;;;;;14.43;100.00;99087.72;5099389;28;20102;-75
2023/08/09 01:51:41;;;;;;;25.00;3.42;;;;;;;14.54;100.00;99119.19;5096279;28;20046;-74
2023/08/09 01:54:08;;;;;;;23.83;3.33;;;;;;;14.55;100.00;99109.19;5095894;28;20119;-75
2023/08/09 01:56:34;;;;;;;30.33;4.07;;;;;;;14.63;100.00;99122.19;5095594;28;20024;-75
2023/08/09 01:59:00;;;;;;;28.75;4.05;;;;;;;14.67;100.00;99127.88;5096807;28;20438;-74
2023/08/09 02:01:26;;;;;;;33.83;3.97;;;;;;;14.68;100.00;99124.09;5097737;28;20016;-74
2023/08/09 02:03:52;;;;;;;19.90;3.65;;;;;;;14.63;100.00;99138.41;5095484;28;20115;-74
2023/08/09 02:06:17;;;;;;;22.42;4.40;;;;;;;14.50;100.00;99101.00;5095716;28;20066;-74
2023/08/09 02:08:43;;;;;;;21.50;3.33;;;;;;;14.55;100.00;99134.34;5094375;28;20020;-74
2023/08/09 02:11:08;;;;;;;32.03;4.50;;;;;;;14.55;100.00;99126.22;5093912;28;20024;-74
2023/08/09 02:13:34;;;;;;;31.10;4.10;;;;;;;14.68;100.00;99129.53;5110228;28;20071;-74
2023/08/09 02:16:00;;;;;;;27.90;3.80;;;;;;;14.55;100.00;99118.09;5093358;28;20028;-74
2023/08/09 02:18:26;;;;;;;30.30;4.43;;;;;;;14.59;100.00;99109.44;5093063;28;20028;-74
2023/08/09 02:20:52;;;;;;;28.98;3.70;;;;;;;14.67;100.00;99125.16;5094426;28;20121;-74
2023/08/09 02:23:18;;;;;;;26.52;4.30;;;;;;;14.65;100.00;99116.50;5093501;28;20481;-74
2023/08/09 02:25:43;;;;;;;33.15;4.10;;;;;;;14.73;100.00;99126.81;5093311;28;20407;-74
2023/08/09 02:28:08;;;;;;;26.25;3.63;;;;;;;14.68;100.00;99130.31;5076742;28;20483;-74
2023/08/09 02:30:34;;;;;;;33.78;4.90;;;;;;;14.64;100.00;99115.69;5094455;28;20498;-74
2023/08/09 02:32:59;;;;;;;23.25;3.80;;;;;;;14.76;100.00;99135.19;5092890;28;20036;-75
2023/08/09 02:35:24;;;;;;;27.98;4.00;;;;;;;14.78;100.00;99140.38;5109793;28;20028;-74
2023/08/09 02:37:50;;;;;;;25.48;3.85;;;;;;;14.84;100.00;99133.88;5109892;28;20034;-75
2023/08/09 02:40:15;;;;;;;37.90;5.13;;;;;;;14.80;100.00;99138.19;5093404;28;20043;-74
2023/08/09 02:42:41;;;;;;;26.10;3.38;;;;;;;14.71;100.00;99127.09;5096192;28;20047;-74
2023/08/09 02:45:07;;;;;;;33.75;4.25;;;;;;;14.93;100.00;99145.81;5093073;28;20034;-74
2023/08/09 02:47:34;;;;;;;33.75;5.28;;;;;;;14.85;100.00;99149.03;5092568;28;20044;-74
2023/08/09 02:49:59;;;;;;;31.88;4.75;;;;;;;14.91;100.00;99158.00;5075595;28;20027;-74
2023/08/09 02:52:25;;;;;;;30.65;4.28;;;;;;;14.86;100.00;99142.53;5092458;28;20056;-74
2023/08/09 02:54:51;;;;;;;30.25;5.03;;;;;;;14.88;100.00;99145.81;5092109;28;20028;-74
2023/08/09 02:57:16;;;;;;;33.45;3.97;;;;;;;14.87;100.00;99159.63;5093375;28;20058;-74
2023/08/09 02:59:42;;;;;;;33.83;4.80;;;;;;;14.71;100.00;99135.22;5092171;28;20562;-74
2023/08/09 03:02:08;;;;;;;28.10;3.45;;;;;;;14.77;100.00;99150.38;5109160;28;20032;-74
2023/08/09 03:04:34;;;;;;;33.97;4.45;;;;;;;14.85;100.00;99156.38;5093389;28;20024;-74
2023/08/09 03:07:00;;;;;;;43.65;5.18;;;;;;;14.90;100.00;99164.47;5108968;28;20096;-74
2023/08/09 03:09:25;;;;;;;33.38;4.63;;;;;;;14.90;100.00;99162.59;5075071;28;20114;-74
2023/08/09 03:11:50;;;;;;;33.95;5.22;;;;;;;14.88;100.00;99175.59;5075042;28;20028;-74
2023/08/09 03:14:16;;;;;;;34.78;4.45;;;;;;;14.92;100.00;99176.69;5091734;28;20043;-74
2023/08/09 03:16:41;;;;;;;36.72;5.65;;;;;;;14.96;100.00;99171.53;5074766;28;20035;-74
2023/08/09 03:19:08;;;;;;;36.63;4.68;;;;;;;14.93;100.00;99174.78;5091524;28;20035;-74
2023/08/09 03:21:34;;;;;;;38.10;5.20;;;;;;;14.89;100.00;99169.09;5091796;28;20035;-74
2023/08/09 03:23:59;;;;;;;32.63;4.72;;;;;;;14.88;100.00;99163.94;5091562;28;20020;-74
2023/08/09 03:26:26;;;;;;;26.45;3.78;;;;;;;14.76;100.00;99175.00;5076104;28;20089;-75
2023/08/09 03:28:52;;;;;;;33.33;4.10;;;;;;;14.82;100.00;99167.72;5075510;28;20044;-75
2023/08/09 03:31:17;;;;;;;35.72;4.35;;;;;;;14.83;100.00;99197.22;5093012;28;20032;-75
2023/08/09 03:33:43;;;;;;;33.25;4.07;;;;;;;14.84;100.00;99179.91;5109533;28;20028;-75
2023/08/09 03:36:09;;;;;;;30.17;4.57;;;;;;;15.01;100.00;99204.88;5098582;28;20083;-75
2023/08/09 03:38:34;;;;;;;39.85;5.40;;;;;;;15.06;100.00;99205.97;5109368;28;20530;-74
2023/08/09 03:41:00;;;;;;;34.30;4.25;;;;;;;15.00;100.00;99205.97;5092314;28;20408;-75
2023/08/09 03:43:25;;;;;;;28.90;3.88;;;;;;;15.00;100.00;99205.97;5108925;28;20457;-74
2023/08/09 03:45:51;;;;;;;21.17;2.88;;;;;;;14.95;100.00;99200.53;5110151;28;20501;-75
2023/08/09 03:48:16;;;;;;;28.35;3.60;;;;;;;14.94;100.00;99211.63;5110053;28;20069;-75
2023/08/09 03:50:42;;;;;;;29.42;3.67;;;;;;;14.94;100.00;99212.44;5094368;28;20071;-75
2023/08/09 03:53:07;;;;;;;29.95;4.85;;;;;;;14.95;100.00;99208.66;5095455;28;20038;-75
2023/08/09 03:55:32;;;;;;;22.40;3.33;;;;;;;14.76;100.00;99186.66;5111430;28;20024;-76
2023/08/09 03:57:58;;;;;;;23.83;4.18;;;;;;;14.99;100.00;99226.00;5109995;28;20032;-75
2023/08/09 04:00:26;;;;;;;26.85;3.60;;;;;;;14.93;100.00;99205.41;5109624;28;20091;-75
2023/08/09 04:02:52;;;;;;;35.65;4.82;;;;;;;15.09;100.00;99222.50;5075317;28;20060;-75
2023/08/09 04:05:19;;;;;;;30.02;4.57;;;;;;;15.11;100.00;99209.50;5092697;28;20028;-75
2023/08/09 04:07:45;;;;;;;32.60;4.82;;;;;;;15.18;100.00;99237.16;5094368;28;20415;-75
2023/08/09 04:10:12;;;;;;;36.97;4.10;;;;;;;15.04;100.00;99215.19;5094743;28;20020;-75
2023/08/09 04:12:37;;;;;;;27.83;4.18;;;;;;;15.16;100.00;99228.47;5095139;28;20027;-75
2023/08/09 04:15:04;;;;;;;32.47;4.40;;;;;;;15.18;100.00;99239.06;5094615;28;20028;-75
2023/08/09 04:17:32;;;;;;;22.80;3.97;;;;;;;15.12;100.00;99235.50;5097034;28;20028;-75
2023/08/09 04:19:59;;;;;;;24.85;3.58;;;;;;;15.06;100.00;99243.88;5096888;28;20043;-75
2023/08/09 04:22:24;;;;;;;26.77;4.38;;;;;;;14.99;100.00;99244.13;5098608;28;20103;-75
2023/08/09 04:24:50;;;;;;;29.52;3.65;;;;;;;15.00;100.00;99235.75;5099395;28;20165;-76
2023/08/09 04:27:16;;;;;;;26.25;3.60;;;;;;;15.22;100.00;99237.44;5080868;28;20039;-75
2023/08/09 04:29:43;;;;;;;25.70;3.65;;;;;;;15.06;100.00;99252.00;5097212;28;20035;-75
2023/08/09 04:32:08;;;;;;;23.52;3.40;;;;;;;15.06;100.00;99262.84;5095830;28;20479;-75
2023/08/09 04:34:33;;;;;;;16.10;2.83;;;;;;;14.94;100.00;99253.06;5096719;28;20036;-76
2023/08/09 04:36:59;;;;;;;21.63;2.95;;;;;;;15.06;100.00;99266.38;5095919;28;20058;-76
2023/08/09 04:39:24;;;;;;;15.73;2.67;;;;;;;14.98;100.00;99270.41;5111532;28;20062;-76
2023/08/09 04:41:50;;;;;;;19.65;3.55;;;;;;;15.04;100.00;99280.19;5096758;28;20486;-76
2023/08/09 04:44:15;;;;;;;12.57;1.90;;;;;;;14.86;100.00;99283.34;5095170;28;20476;-76
2023/08/09 04:46:41;;;;;;;16.00;2.72;;;;;;;14.86;100.00;99294.19;5078882;28;20050;-75
2023/08/09 04:49:06;;;;;;;14.65;2.92;;;;;;;14.85;100.00;99265.50;5094659;28;20023;-75
2023/08/09 04:51:32;;;;;;;8.70;1.48;;;;;;;14.74;100.00;99278.19;5092609;28;20125;-75
2023/08/09 04:53:58;;;;;;;19.48;2.88;;;;;;;14.94;100.00;99298.31;5093372;28;20047;-75
2023/08/09 04:56:23;;;;;;;13.00;2.00;;;;;;;14.86;100.00;99274.41;5093223;28;20189;-75
2023/08/09 04:58:49;;;;;;;11.95;1.65;;;;;;;14.93;100.00;99302.91;5095517;28;20440;-75
2023/08/09 05:01:14;;;;;;;12.68;1.90;;;;;;;14.95;100.00;99319.69;5109929;28;20036;-74
2023/08/09 05:03:40;;;;;;;13.27;1.90;;;;;;;14.89;100.00;99304.50;5109530;28;20035;-75
2023/08/09 05:06:05;;;;;;;17.45;1.85;;;;;;;14.96;100.00;99294.22;5110321;28;20020;-75
2023/08/09 05:08:30;;;;;;;11.40;1.55;;;;;;;15.06;100.00;99325.16;5093288;28;20043;-75
2023/08/09 05:10:56;;;;;;;15.52;2.08;;;;;;;15.18;100.00;99323.03;5094264;28;20032;-75
2023/08/09 05:13:21;;;;;;;15.38;1.83;;;;;;;15.08;100.00;99310.28;5096450;28;20490;-75
2023/08/09 05:15:47;;;;;;;15.30;2.28;;;;;;;15.19;100.00;99330.91;5095862;28;20161;-75
2023/08/09 05:18:13;;;;;;;15.02;2.58;;;;;;;15.34;100.00;99329.34;5113167;28;20161;-75
2023/08/09 05:20:38;;;;;;;16.80;2.17;;;;;;;15.30;100.00;99320.94;5096324;28;20032;-74
2023/08/09 05:23:03;;;;;;;16.80;2.42;;;;;;;15.26;100.00;99317.94;5095411;28;20028;-75
2023/08/09 05:25:29;;;;;;;16.40;1.85;;;;;;;15.37;100.00;99337.75;5095612;28;20447;-75
2023/08/09 05:27:56;;;;;;;16.13;1.77;;;;;;;15.28;100.00;99334.72;5078727;28;20093;-75
2023/08/09 05:30:22;;;;;;;19.25;2.90;;;;;;;15.51;100.00;99344.28;5112297;28;20051;-75
2023/08/09 05:32:48;;;;;;;12.52;2.25;;;;;;;15.55;100.00;99343.75;5094689;28;20035;-75
2023/08/09 05:35:14;;;;;;;17.77;2.45;;;;;;;15.43;100.00;99341.25;5095637;28;20031;-75
2023/08/09 05:37:39;;;;;;;17.63;2.75;;;;;;;15.42;100.00;99339.66;5113337;28;20032;-76
2023/08/09 05:40:12;;;;;;;20.83;3.10;;;;;;;15.54;100.00;99356.50;5095382;28;20031;-75
2023/08/09 05:42:38;;;;;;;14.05;1.90;;;;;;;15.44;100.00;99351.84;5096900;28;20114;-76
2023/08/09 05:45:04;;;;;;;12.85;1.95;;;;;;;15.42;100.00;99350.50;5098260;28;20422;-76
2023/08/09 05:47:29;;;;;;;9.77;2.30;;;;;;;15.54;100.00;99369.25;5114876;28;20032;-76
2023/08/09 05:49:55;;;;;;;11.30;1.70;;;;;;;15.45;100.00;99363.50;5101341;28;20474;-76
2023/08/09 05:52:20;;;;;;;13.55;1.98;;;;;;;15.44;100.00;99370.81;5100666;28;20079;-76
2023/08/09 05:54:46;;;;;;;13.20;1.77;;;;;;;15.51;100.00;99368.69;5098904;28;20097;-76
2023/08/09 05:57:12;;;;;;;9.73;1.50;;;;;;;15.44;100.00;99376.25;5099215;28;20031;-76
2023/08/09 05:59:39;;;;;;;15.52;1.70;;;;;;;15.41;100.00;99371.38;5098198;28;20031;-76
2023/08/09 06:02:06;;;;;;;10.77;1.30;;;;;;;15.31;100.00;99355.06;5116018;28;20036;-76
2023/08/09 06:04:32;;;;;;;8.05;1.90;;;;;;;15.59;100.00;99366.53;5100980;28;20016;-77
2023/08/09 06:06:57;;;;;;;12.30;1.60;;;;;;;15.62;100.00;99393.09;5100150;28;20066;-77
2023/08/09 06:09:23;;;;;;;8.85;1.70;;;;;;;15.56;100.00;99376.00;5116954;28;20036;-76
2023/08/09 06:11:49;;;;;;;10.73;1.55;;;;;;;15.72;100.00;99382.31;5099710;28;20050;-76
2023/08/09 06:14:14;;;;;;;10.90;1.80;;;;;;;15.73;100.00;99378.53;5100909;28;20034;-77
2023/08/09 06:16:43;;;;;;;9.00;1.67;;;;;;;15.75;100.00;99395.34;5099205;28;20032;-76
2023/08/09 06:19:09;;;;;;;17.55;1.88;;;;;;;15.67;100.00;99396.69;5116024;28;20506;-76
2023/08/09 06:21:34;;;;;;;13.65;1.98;;;;;;;15.64;100.00;99401.81;5099514;28;20034;-76
2023/08/09 06:24:00;;;;;;;9.57;1.10;;;;;;;15.66;100.00;99405.03;5099914;28;20395;-76
2023/08/09 06:26:25;;;;;;;5.68;1.02;;;;;;;15.72;100.00;99414.84;5099885;28;20115;-76
2023/08/09 06:28:51;;;;;;;13.23;1.75;;;;;;;15.80;100.00;99406.22;5101043;28;20067;-76
2023/08/09 06:31:17;;;;;;;10.82;1.30;;;;;;;15.86;100.00;99423.28;5100642;28;20024;-76
2023/08/09 06:33:42;;;;;;;14.00;1.63;;;;;;;15.73;100.00;99427.34;5098998;28;20243;-76
2023/08/09 06:36:09;;;;;;;7.10;1.33;;;;;;;15.70;100.00;99427.88;5098751;28;20450;-76
2023/08/09 06:38:35;;;;;;;14.45;2.10;;;;;;;15.85;100.00;99425.19;5115776;28;20497;-76
2023/08/09 06:41:00;;;;;;;15.20;2.88;;;;;;;15.81;100.00;99445.00;5098682;28;20051;-76
2023/08/09 06:43:26;;;;;;;9.43;1.45;;;;;;;15.80;100.00;99441.47;5115386;28;20050;-76
2023/08/09 06:45:52;;;;;;;8.82;1.45;;;;;;;15.80;100.00;99449.63;5098460;28;20024;-76
2023/08/09 06:48:17;;;;;;;13.63;1.33;;;;;;;15.68;100.00;99430.03;5099819;28;20398;-76
2023/08/09 06:50:43;;;;;;;11.50;1.50;;;;;;;15.76;100.00;99459.38;5099200;28;20379;-76
2023/08/09 06:53:08;;;;;;;8.57;1.23;;;;;;;15.76;100.00;99459.38;5098722;28;20475;-76
2023/08/09 06:55:35;;;;;;;10.13;1.25;;;;;;;15.99;100.00;99466.19;5097530;28;20039;-76
2023/08/09 06:58:00;;;;;;;10.10;1.67;;;;;;;15.82;100.00;99463.72;5099189;28;20031;-76
2023/08/09 07:00:26;;;;;;;7.50;1.08;;;;;;;15.79;100.00;99458.81;5099862;28;20057;-76
2023/08/09 07:02:51;;;;;;;12.98;1.42;;;;;;;15.97;100.00;99469.19;5100734;28;20028;-76
2023/08/09 07:05:21;;;;;;;10.55;2.13;;;;;;;15.97;100.00;99465.66;5082866;28;20038;-76
2023/08/09 07:07:51;;;;;;;11.65;1.38;;;;;;;15.88;100.00;99462.66;5101990;28;20020;-76
2023/08/09 07:10:17;;;;;;;8.85;1.70;;;;;;;16.00;100.00;99469.75;5101264;28;20206;-76
2023/08/09 07:12:43;;;;;;;9.23;1.63;;;;;;;15.86;100.00;99491.13;5101556;28;20028;-76
2023/08/09 07:15:09;;;;;;;4.20;0.85;;;;;;;15.47;100.00;99475.22;5100719;28;20413;-76
2023/08/09 07:17:36;;;;;;;6.28;1.10;;;;;;;15.65;100.00;99498.31;5097320;28;20032;-75
2023/08/09 07:20:07;;;;;;;6.60;1.42;;;;;;;15.70;100.00;99511.97;5098547;28;20097;-76
2023/08/09 07:22:35;;;;;;;5.25;1.00;;;;;;;15.87;100.00;99515.28;5097564;28;20120;-76
2023/08/09 07:25:01;;;;;;;5.55;0.80;;;;;;;15.61;100.00;99510.78;5098818;28;20020;-76
2023/08/09 07:27:26;;;;;;;11.75;1.30;;;;;;;15.77;100.00;99536.94;5098642;28;20028;-76
2023/08/09 07:29:53;;;;;;;6.80;0.90;;;;;;;15.68;100.00;99520.34;5097426;28;20032;-76
2023/08/09 07:32:18;;;;;;;7.60;1.15;;;;;;;15.75;100.00;99525.53;5097725;28;20020;-76
2023/08/09 07:34:43;;;;;;;7.43;1.13;;;;;;;15.56;100.00;99513.47;5098754;28;20035;-76
2023/08/09 07:37:09;;;;;;;8.95;1.23;;;;;;;15.66;100.00;99517.09;5080859;28;20028;-76
2023/08/09 07:39:34;;;;;;;6.07;1.10;;;;;;;15.78;100.00;99527.72;5097988;28;20028;-76
2023/08/09 07:42:00;;;;;;;8.32;1.30;;;;;;;15.84;100.00;99528.56;5099224;28;20062;-76
2023/08/09 07:44:26;;;;;;;7.07;1.15;;;;;;;15.93;100.00;99544.06;5081274;28;20028;-76
2023/08/09 07:46:51;;;;;;;6.68;0.82;;;;;;;15.82;100.00;99545.06;5099094;28;20035;-76
2023/08/09 07:49:17;;;;;;;4.70;0.98;;;;;;;15.85;100.00;99527.47;5097717;28;20027;-76
2023/08/09 07:51:43;;;;;;;7.15;1.10;;;;;;;16.12;100.00;99538.13;5097767;28;20056;-76
2023/08/09 07:54:08;;;;;;;7.95;1.20;;;;;;;16.16;100.00;99553.63;5099021;28;20386;-76
2023/08/09 07:56:34;;;;;;;10.48;1.20;;;;;;;16.12;100.00;99560.66;5080733;28;20074;-76
2023/08/09 07:58:59;;;;;;;11.55;1.30;;;;;;;16.21;100.00;99555.53;5097667;28;20506;-76
2023/08/09 08:01:25;;;;;;;12.45;1.90;;;;;;;16.04;100.00;99547.63;5098237;28;20074;-76
2023/08/09 08:03:50;;;;;;;6.75;1.13;;;;;;;16.17;100.00;99566.13;5115433;28;20016;-76
2023/08/09 08:06:17;;;;;;;9.02;1.30;;;;;;;16.08;100.00;99566.91;5082414;28;20062;-76
2023/08/09 08:08:44;;;;;;;7.70;1.48;;;;;;;16.16;100.00;99578.06;5100146;28;20070;-76
2023/08/09 08:11:10;;;;;;;13.30;1.73;;;;;;;16.25;100.00;99578.34;5100072;28;20436;-76
2023/08/09 08:13:36;;;;;;;7.88;1.35;;;;;;;16.16;100.00;99577.25;5095034;28;20077;-76
2023/08/09 08:16:04;;;;;;;7.40;1.60;;;;;;;15.86;100.00;99567.06;5097276;28;20035;-76
2023/08/09 08:18:30;;;;;;;8.80;1.50;;;;;;;16.07;100.00;99593.22;5098697;28;20099;-76
2023/08/09 08:20:55;;;;;;;6.88;1.20;;;;;;;15.96;100.00;99581.50;5097989;28;20020;-76
2023/08/09 08:23:21;;;;;;;10.55;1.50;;;;;;;16.25;100.00;99607.41;5116019;28;20020;-76
2023/08/09 08:25:46;;;;;;;6.95;1.30;;;;;;;16.20;100.00;99609.00;5082289;28;20036;-77
2023/08/09 08:28:12;;;;;;;9.02;1.77;;;;;;;16.19;100.00;99607.41;5081033;28;20032;-76
2023/08/09 08:30:38;;;;;;;8.07;1.42;;;;;;;16.19;100.00;99618.25;5096155;28;20094;-76
2023/08/09 08:33:04;;;;;;;6.88;1.40;;;;;;;16.02;100.00;99614.06;5080479;28;20506;-76
2023/08/09 08:35:36;;;;;;;9.82;1.50;;;;;;;15.96;100.00;99616.78;5114914;28;20126;-76
2023/08/09 08:38:02;;;;;;;8.63;1.58;;;;;;;16.16;100.00;99621.50;5112660;28;20039;-76
2023/08/09 08:40:27;;;;;;;7.30;1.50;;;;;;;16.05;100.00;99613.56;5097583;28;20051;-77
2023/08/09 08:42:53;;;;;;;6.85;0.93;;;;;;;16.04;100.00;99622.78;5100084;28;20032;-77
2023/08/09 08:45:19;;;;;;;4.68;1.20;;;;;;;16.16;100.00;99632.34;5100445;28;20031;-77
2023/08/09 08:47:46;;;;;;;8.82;1.08;;;;;;;16.01;100.00;99612.47;5100837;28;20024;-76
2023/08/09 08:50:14;;;;;;;9.25;1.42;;;;;;;16.39;99.26;99633.78;5100822;28;20092;-77
2023/08/09 08:52:51;;;;;;;8.80;1.60;;;;;;;16.24;99.67;99622.88;5099562;28;20040;-76
2023/08/09 08:55:17;;;;;;;7.85;1.50;;;;;;;16.65;98.45;99644.72;5097028;28;20032;-77
2023/08/09 08:57:46;;;;;;;9.13;1.83;;;;;;;16.70;98.29;99639.31;5095637;28;20032;-76
2023/08/09 09:00:16;;;;;;;10.30;1.48;;;;;;;16.62;98.02;99634.38;5095315;28;20020;-77
2023/08/09 09:02:43;;;;;;;9.75;1.67;;;;;;;16.99;97.14;99655.16;5095539;28;20223;-77
2023/08/09 09:05:10;;;;;;;12.05;1.60;;;;;;;16.51;98.43;99628.13;5097677;28;20024;-77
2023/08/09 09:07:38;;;;;;;7.78;1.35;;;;;;;16.67;96.86;99661.56;5100661;28;20051;-77
2023/08/09 09:10:05;;;;;;;9.32;1.50;;;;;;;16.73;96.82;99652.38;5097499;28;20016;-77
2023/08/09 09:12:34;;;;;;;9.63;1.48;;;;;;;16.68;95.73;99674.88;5099923;28;20043;-76
2023/08/09 09:15:00;;;;;;;7.60;1.40;;;;;;;16.86;96.47;99679.06;5100834;28;20024;-77
2023/08/09 09:17:26;;;;;;;12.05;1.58;;;;;;;17.02;94.90;99679.06;5118543;28;20028;-77
2023/08/09 09:19:52;;;;;;;9.20;1.67;;;;;;;16.87;94.77;99672.53;5083261;28;20509;-77
2023/08/09 09:22:31;;;;;;;8.95;1.50;;;;;;;16.79;94.79;99673.06;5102559;28;20024;-77
2023/08/09 09:24:58;;;;;;;10.65;2.00;;;;;;;16.98;96.22;99688.84;5101910;28;20021;-76
2023/08/09 09:27:29;;;;;;;11.88;1.90;;;;;;;16.82;96.23;99661.66;5102979;28;20024;-76
2023/08/09 09:29:54;;;;;;;7.03;1.35;;;;;;;16.78;95.49;99682.28;5100222;28;20024;-77
2023/08/09 09:32:20;;;;;;;10.27;2.08;;;;;;;16.90;94.77;99687.47;5101770;28;20515;-77
2023/08/09 09:34:45;;;;;;;6.68;1.10;;;;;;;16.98;94.47;99702.44;5116320;28;20036;-77
2023/08/09 09:37:14;;;;;;;6.18;1.48;;;;;;;17.02;94.42;99708.97;5099817;28;20039;-77
2023/08/09 09:39:41;;;;;;;7.22;1.13;;;;;;;16.91;94.69;99702.69;5103952;28;20040;-78
2023/08/09 09:42:14;;;;;;;8.68;1.40;;;;;;;17.01;94.21;99710.88;5118572;28;20103;-77
2023/08/09 09:44:41;;;;;;;7.70;1.00;;;;;;;17.06;93.23;99713.59;5101528;28;20032;-77
2023/08/09 09:47:07;;;;;;;4.03;0.90;;;;;;;17.04;93.17;99717.66;5101550;28;20096;-77
2023/08/09 09:49:35;;;;;;;10.82;1.67;;;;;;;17.21;92.35;99722.88;5100835;28;20051;-77
2023/08/09 09:52:03;;;;;;;14.75;2.13;;;;;;;17.21;92.61;99725.59;5102029;28;20055;-77
2023/08/09 09:54:29;;;;;;;10.65;1.73;;;;;;;17.45;92.81;99726.72;5102643;28;20050;-77
2023/08/09 09:56:54;;;;;;;10.40;1.33;;;;;;;17.29;93.69;99735.94;5104527;28;20028;-77
2023/08/09 09:59:19;;;;;;;8.73;1.25;;;;;;;17.04;92.98;99707.59;5106731;28;20071;-78
2023/08/09 10:01:47;;;;;;;2.63;0.73;;;;;;;17.10;91.95;99722.03;5106290;28;20028;-77
2023/08/09 10:04:16;;;;;;;6.05;1.23;;;;;;;17.17;91.78;99705.47;5108732;28;20024;-77
2023/08/09 10:06:45;;;;;;;7.10;1.27;;;;;;;17.21;91.65;99742.72;5108955;28;20013;-77
2023/08/09 10:09:13;;;;;;;7.35;1.10;;;;;;;17.02;89.68;99742.41;5108384;28;20031;-77
2023/08/09 10:11:40;;;;;;;7.10;1.20;;;;;;;17.18;90.76;99735.09;5109120;28;20027;-77
2023/08/09 10:14:08;;;;;;;6.53;0.90;;;;;;;17.32;90.30;99749.81;5123922;28;20055;-77
2023/08/09 10:16:35;;;;;;;7.40;1.23;;;;;;;17.28;90.96;99762.28;5106862;28;20107;-77
2023/08/09 10:19:07;;;;;;;4.00;0.60;;;;;;;17.34;90.89;99754.97;5104238;28;20028;-77
2023/08/09 10:21:32;;;;;;;4.10;0.80;;;;;;;17.14;90.86;99747.59;5101873;28;20054;-77
2023/08/09 10:24:09;;;;;;;5.75;1.25;;;;;;;17.32;90.81;99751.72;5104122;28;20024;-76
2023/08/09 10:26:39;;;;;;;9.60;1.25;;;;;;;17.45;90.51;99772.13;5121354;28;20043;-77
2023/08/09 10:29:12;;;;;;;8.82;1.15;;;;;;;17.61;89.76;99788.22;5104355;28;20047;-77
2023/08/09 10:31:57;;;;;;;6.15;1.10;;;;;;;17.51;88.08;99760.16;5104235;28;20113;-77
2023/08/09 10:34:36;;;;;;;7.28;1.30;;;;;;;17.71;87.09;99783.84;5101981;28;20079;-77
2023/08/09 10:37:03;;;;;;;4.95;1.17;;;;;;;17.79;86.42;99783.34;5099734;28;20176;-77
2023/08/09 10:39:30;;;;;;;10.25;1.15;;;;;;;17.73;87.04;99793.38;5100552;28;20034;-77
2023/08/09 10:42:07;;;;;;;11.45;1.67;;;;;;;17.83;88.30;99798.03;5115288;28;20124;-76
2023/08/09 10:44:39;;;;;;;10.25;1.33;;;;;;;17.70;88.18;99795.81;5099397;28;20063;-77
2023/08/09 10:47:13;;;;;;;12.13;1.60;;;;;;;17.88;88.74;99805.38;5098068;28;20027;-77
2023/08/09 10:49:48;;;;;;;6.90;1.10;;;;;;;17.64;89.26;99808.59;5099866;28;20062;-77
2023/08/09 10:52:19;;;;;;;11.43;1.52;;;;;;;17.65;89.65;99810.25;5101838;28;20076;-77
2023/08/09 10:54:45;;;;;;;6.90;1.15;;;;;;;17.77;88.85;99818.97;5097619;28;20035;-77
2023/08/09 10:57:12;;;;;;;9.90;1.83;;;;;;;17.49;89.27;99816.75;5078269;28;20043;-77
2023/08/09 10:59:41;;;;;;;12.27;1.65;;;;;;;17.91;88.82;99818.44;5077371;28;20078;-77
2023/08/09 11:02:07;;;;;;;6.85;1.10;;;;;;;17.84;89.49;99830.41;5110340;28;20024;-76
2023/08/09 11:04:33;;;;;;;7.63;1.23;;;;;;;17.81;88.14;99828.25;5089139;28;20031;-77
2023/08/09 11:06:58;;;;;;;9.48;1.52;;;;;;;17.74;87.90;99810.50;5080272;28;20078;-77
2023/08/09 11:09:26;;;;;;;6.25;1.40;;;;;;;17.84;88.55;99837.75;5055840;28;20029;-77
2023/08/09 11:11:52;;;;;;;7.22;1.20;;;;;;;17.71;88.76;99847.22;5071568;28;20520;-77
2023/08/09 11:14:20;;;;;;;7.47;1.45;;;;;;;17.77;88.32;99846.19;5073667;28;20032;-77
2023/08/09 11:16:47;;;;;;;7.00;1.35;;;;;;;17.71;87.28;99846.41;5084030;28;20040;-76
2023/08/09 11:19:16;;;;;;;8.77;1.42;;;;;;;17.91;86.82;99845.66;5098171;28;20035;-76